createdAt,value
2023-04-08T00:00:46.860Z,99245.84
2023-04-08T00:05:56.453Z,99249.88
2023-04-08T00:10:59.736Z,99248.73
2023-04-08T00:16:03.391Z,99251.77
2023-04-08T00:21:06.684Z,99251.65
2023-04-08T00:26:09.956Z,99252.31
2023-04-08T00:31:13.436Z,99250.07
2023-04-08T00:36:16.784Z,99252.85
2023-04-08T00:41:20.222Z,99256.28
2023-04-08T00:46:23.892Z,99259.58
2023-04-08T00:51:27.646Z,99264.30
2023-04-08T00:56:32.964Z,99268.08
2023-04-08T01:01:56.916Z,99271.98
2023-04-08T01:07:22.117Z,99273.91
2023-04-08T01:12:27.875Z,99279.08
2023-04-08T01:17:33.681Z,99283.08
2023-04-08T01:22:57.654Z,99281.98
2023-04-08T01:28:05.000Z,99285.30
2023-04-08T01:33:11.900Z,99281.14
2023-04-08T01:38:18.479Z,99283.82
2023-04-08T01:43:22.124Z,99279.86
2023-04-08T01:48:25.764Z,99277.61
2023-04-08T01:53:29.063Z,99278.02
2023-04-08T01:58:39.414Z,99277.52
2023-04-08T02:03:44.688Z,99281.02
2023-04-08T02:08:48.407Z,99280.83
2023-04-08T02:13:53.439Z,99277.15
2023-04-08T02:19:02.978Z,99280.29
2023-04-08T02:24:09.524Z,99281.52
2023-04-08T02:29:15.100Z,99285.71
2023-04-08T02:34:20.016Z,99287.96
2023-04-08T02:39:31.561Z,99292.66
2023-04-08T02:44:34.947Z,99287.62
2023-04-08T02:49:39.298Z,99299.30
2023-04-08T02:54:42.572Z,99295.78
2023-04-08T02:59:45.783Z,99296.86
2023-04-08T03:04:49.230Z,99299.77
2023-04-08T03:09:55.263Z,99304.80
2023-04-08T03:14:58.489Z,99308.30
2023-04-08T03:20:05.182Z,99311.61
2023-04-08T03:25:08.909Z,99312.23
2023-04-08T03:30:14.630Z,99305.25
2023-04-08T03:35:18.215Z,99314.21
2023-04-08T03:40:21.451Z,99321.81
2023-04-08T03:45:24.747Z,99326.63
2023-04-08T03:50:28.070Z,99332.80
2023-04-08T03:55:31.368Z,99336.30
2023-04-08T04:00:35.762Z,99342.59
2023-04-08T04:05:39.985Z,99349.58
2023-04-08T04:10:43.328Z,99356.26
2023-04-08T04:15:46.977Z,99366.14
2023-04-08T04:20:50.333Z,99373.45
2023-04-08T04:25:53.879Z,99374.36
2023-04-08T04:30:57.161Z,99378.08
2023-04-08T04:36:00.595Z,99383.95
2023-04-08T04:41:04.763Z,99384.64
2023-04-08T04:46:09.288Z,99386.80
2023-04-08T04:51:12.586Z,99394.65
2023-04-08T04:56:19.699Z,99400.58
2023-04-08T05:01:23.084Z,99402.98
2023-04-08T05:06:27.395Z,99404.19
2023-04-08T05:11:30.701Z,99406.17
2023-04-08T05:16:34.669Z,99419.48
2023-04-08T05:21:37.917Z,99421.75
2023-04-08T05:26:41.316Z,99428.61
2023-04-08T05:31:45.290Z,99426.88
2023-04-08T05:36:52.658Z,99431.29
2023-04-08T05:41:56.290Z,99436.16
2023-04-08T05:47:00.608Z,99441.67
2023-04-08T05:52:04.343Z,99445.63
2023-04-08T05:57:09.271Z,99456.90
2023-04-08T06:02:13.724Z,99460.73
2023-04-08T06:07:16.973Z,99468.04
2023-04-08T06:12:20.257Z,99481.82
2023-04-08T06:17:23.968Z,99487.52
2023-04-08T06:22:27.717Z,99493.71
2023-04-08T06:27:31.053Z,99498.14
2023-04-08T06:32:34.494Z,99496.25
2023-04-08T06:37:38.786Z,99499.17
2023-04-08T06:42:44.658Z,99508.33
2023-04-08T06:48:12.729Z,99510.33
2023-04-08T06:53:16.075Z,99507.14
2023-04-08T06:58:19.269Z,99506.67
2023-04-08T07:03:23.296Z,99508.70
2023-04-08T07:08:27.508Z,99508.55
2023-04-08T07:13:31.115Z,99518.78
2023-04-08T07:18:34.491Z,99518.23
2023-04-08T07:23:37.911Z,99516.36
2023-04-08T07:28:41.512Z,99525.05
2023-04-08T07:33:46.137Z,99532.30
2023-04-08T07:38:49.636Z,99541.91
2023-04-08T07:43:53.044Z,99547.75
2023-04-08T07:48:56.263Z,99548.11
2023-04-08T07:54:00.236Z,99542.86
2023-04-08T07:59:03.564Z,99545.45
2023-04-08T08:04:06.925Z,99558.58
2023-04-08T08:09:10.194Z,99561.13
2023-04-08T08:14:15.299Z,99556.29
2023-04-08T08:19:18.672Z,99555.60
2023-04-08T08:24:22.327Z,99548.60
2023-04-08T08:29:25.714Z,99549.10
2023-04-08T08:34:28.901Z,99556.02
2023-04-08T08:39:32.264Z,99554.98
2023-04-08T08:44:36.338Z,99560.14
2023-04-08T08:49:40.076Z,99555.30
2023-04-08T08:54:44.843Z,99560.33
2023-04-08T08:59:48.070Z,99559.70
2023-04-08T09:05:02.168Z,99563.06
2023-04-08T09:10:06.722Z,99571.23
2023-04-08T09:15:10.882Z,99576.39
2023-04-08T09:20:15.533Z,99581.58
2023-04-08T09:25:26.584Z,99580.77
2023-04-08T09:30:32.709Z,99572.41
2023-04-08T09:35:36.724Z,99584.16
2023-04-08T09:40:43.147Z,99590.86
2023-04-08T09:45:48.362Z,99594.10
2023-04-08T09:50:54.627Z,99595.08
2023-04-08T09:56:00.988Z,99597.00
2023-04-08T10:01:06.312Z,99603.87
2023-04-08T10:06:12.181Z,99599.39
2023-04-08T10:11:16.834Z,99601.84
2023-04-08T10:16:27.184Z,99606.27
2023-04-08T10:21:43.865Z,99605.39
2023-04-08T10:26:49.065Z,99605.11
2023-04-08T10:31:56.246Z,99596.45
2023-04-08T10:36:59.723Z,99597.20
2023-04-08T10:42:04.263Z,99597.52
2023-04-08T10:47:07.763Z,99598.58
2023-04-08T10:52:21.757Z,99602.14
2023-04-08T10:57:26.044Z,99605.89
2023-04-08T11:02:34.109Z,99604.33
2023-04-08T11:07:42.073Z,99601.45
2023-04-08T11:12:45.735Z,99599.12
2023-04-08T11:17:50.282Z,99597.55
2023-04-08T11:22:54.408Z,99600.07
2023-04-08T11:27:58.270Z,99604.34
2023-04-08T11:33:02.178Z,99608.73
2023-04-08T11:38:06.041Z,99600.63
2023-04-08T11:43:15.625Z,99606.65
2023-04-08T11:48:18.949Z,99612.67
2023-04-08T11:53:26.191Z,99606.49
2023-04-08T11:58:29.750Z,99604.40
2023-04-08T12:03:33.215Z,99598.51
2023-04-08T12:08:36.763Z,99595.23
2023-04-08T12:13:40.191Z,99592.93
2023-04-08T12:18:43.874Z,99590.61
2023-04-08T12:23:47.410Z,99583.58
2023-04-08T12:28:50.885Z,99580.61
2023-04-08T12:33:54.368Z,99580.93
2023-04-08T12:38:57.988Z,99581.27
2023-04-08T12:44:01.365Z,99580.08
2023-04-08T12:49:05.741Z,99578.10
2023-04-08T12:54:09.768Z,99581.14
2023-04-08T12:59:24.688Z,99578.84
2023-04-08T13:04:28.389Z,99580.04
2023-04-08T13:09:34.753Z,99581.18
2023-04-08T13:14:38.868Z,99576.55
2023-04-08T13:19:42.288Z,99575.15
2023-04-08T13:24:45.336Z,99573.86
2023-04-08T13:29:48.482Z,99572.50
2023-04-08T13:34:51.681Z,99573.40
2023-04-08T13:39:54.930Z,99570.16
2023-04-08T13:44:58.128Z,99570.17
2023-04-08T13:50:01.656Z,99573.50
2023-04-08T13:55:05.446Z,99570.52
2023-04-08T14:00:09.537Z,99564.08
2023-04-08T14:05:15.915Z,99567.91
2023-04-08T14:10:19.023Z,99569.89
2023-04-08T14:15:22.297Z,99560.20
2023-04-08T14:20:25.751Z,99560.73
2023-04-08T14:25:29.881Z,99561.64
2023-04-08T14:30:34.119Z,99563.45
2023-04-08T14:35:38.363Z,99569.67
2023-04-08T14:40:43.009Z,99573.52
2023-04-08T14:45:47.021Z,99571.28
2023-04-08T14:50:51.254Z,99574.71
2023-04-08T14:55:55.422Z,99577.04
2023-04-08T15:00:59.511Z,99579.11
2023-04-08T15:06:08.948Z,99583.27
2023-04-08T15:11:12.581Z,99578.34
2023-04-08T17:25:32.006Z,99614.85
2023-04-08T17:30:37.098Z,99617.98
2023-04-08T17:35:41.125Z,99619.70
2023-04-08T17:40:44.382Z,99624.73
2023-04-08T17:45:50.219Z,99632.52
2023-04-08T17:51:04.827Z,99635.08
2023-04-08T17:56:08.115Z,99641.70
2023-04-08T18:01:11.562Z,99645.13
2023-04-08T18:06:14.850Z,99645.52
2023-04-08T18:11:18.094Z,99653.94
2023-04-08T18:16:22.273Z,99662.58
2023-04-08T18:21:25.676Z,99667.85
2023-04-08T18:38:37.191Z,99669.19
2023-04-08T18:43:42.828Z,99672.09
2023-04-08T18:54:54.231Z,99676.27
2023-04-08T18:59:59.979Z,99676.28
2023-04-08T19:05:04.260Z,99676.84
2023-04-08T19:10:08.256Z,99681.09
2023-04-08T19:15:11.499Z,99687.77
2023-04-08T19:20:14.708Z,99684.45
2023-04-08T19:26:08.842Z,99685.19
2023-04-08T19:37:15.231Z,99678.65
2023-04-08T19:48:10.436Z,99682.49
2023-04-08T19:53:15.483Z,99684.66
2023-04-08T19:58:22.921Z,99681.33
2023-04-08T20:03:31.393Z,99681.95
2023-04-08T20:08:39.528Z,99680.28
2023-04-08T20:14:08.798Z,99679.86
2023-04-08T20:20:19.835Z,99681.44
2023-04-08T20:25:28.023Z,99678.13
2023-04-08T20:42:53.041Z,99678.69
2023-04-08T20:47:56.614Z,99677.59
2023-04-08T20:53:00.083Z,99672.58
2023-04-08T20:58:05.858Z,99675.66
2023-04-08T21:03:09.281Z,99685.48
2023-04-08T21:08:12.894Z,99680.85
2023-04-08T21:13:16.110Z,99686.43
2023-04-08T21:18:19.276Z,99685.92
2023-04-08T21:23:22.868Z,99684.50
2023-04-08T21:28:26.632Z,99688.70
2023-04-08T21:33:29.934Z,99689.54
2023-04-08T21:38:34.335Z,99688.09
2023-04-08T21:43:37.738Z,99688.15
2023-04-08T21:48:41.199Z,99691.23
2023-04-08T21:53:45.181Z,99689.52
2023-04-08T21:58:48.522Z,99681.73
2023-04-08T22:03:54.097Z,99676.08
2023-04-08T22:08:57.820Z,99677.61
2023-04-08T22:14:01.137Z,99683.13
2023-04-08T22:19:04.638Z,99684.70
2023-04-08T22:24:08.710Z,99683.33
2023-04-08T22:29:12.205Z,99685.04
2023-04-08T22:34:15.790Z,99678.89
2023-04-08T22:39:19.248Z,99680.18
2023-04-08T22:44:22.882Z,99679.69
2023-04-08T22:49:26.377Z,99674.52
2023-04-08T22:54:32.839Z,99675.55
2023-04-08T22:59:40.412Z,99668.45
2023-04-08T23:04:49.493Z,99669.23
2023-04-08T23:10:00.230Z,99671.93
2023-04-08T23:15:03.823Z,99677.55
2023-04-08T23:20:07.584Z,99686.20
2023-04-08T23:25:11.046Z,99690.66
2023-04-08T23:30:14.365Z,99681.02
2023-04-08T23:35:17.817Z,99679.75
2023-04-08T23:40:21.418Z,99675.72
2023-04-08T23:45:25.028Z,99673.35
2023-04-08T23:50:28.172Z,99672.34
2023-04-08T23:55:31.543Z,99684.05
